createdAt,value
2022-08-16T00:01:26.597Z,23.40
2022-08-16T00:04:10.773Z,23.50
2022-08-16T00:06:41.329Z,23.50
2022-08-16T00:09:13.262Z,23.50
2022-08-16T00:11:44.811Z,23.50
2022-08-16T00:14:17.784Z,23.40
2022-08-16T00:17:00.824Z,23.50
2022-08-16T00:19:41.496Z,23.40
2022-08-16T00:22:13.325Z,23.40
2022-08-16T00:24:44.734Z,23.30
2022-08-16T00:27:17.424Z,23.30
2022-08-16T00:29:47.023Z,23.30
2022-08-16T00:32:18.052Z,23.40
2022-08-16T00:34:52.974Z,23.30
2022-08-16T00:37:25.129Z,23.30
2022-08-16T00:40:33.528Z,23.30
2022-08-16T00:43:05.254Z,23.20
2022-08-16T00:45:57.991Z,23.20
2022-08-16T00:48:44.325Z,23.10
2022-08-16T00:51:16.169Z,22.70
2022-08-16T00:53:46.720Z,23.10
2022-08-16T00:56:56.340Z,23.10
2022-08-16T00:59:11.685Z,23.10
2022-08-16T01:01:46.167Z,23.20
2022-08-16T01:04:30.293Z,23.20
2022-08-16T01:07:02.900Z,23.10
2022-08-16T01:09:34.183Z,23.10
2022-08-16T01:12:08.662Z,23.10
2022-08-16T01:14:47.316Z,23.10
2022-08-16T01:17:20.057Z,22.90
2022-08-16T01:19:58.770Z,23.10
2022-08-16T01:22:48.171Z,23.20
2022-08-16T01:25:24.548Z,23.20
2022-08-16T01:28:05.211Z,23.10
2022-08-16T01:30:40.124Z,23.20
2022-08-16T01:33:22.575Z,23.20
2022-08-16T01:35:56.237Z,23.20
2022-08-16T01:38:28.231Z,23.20
2022-08-16T01:41:02.407Z,23.20
2022-08-16T01:43:32.885Z,23.20
2022-08-16T01:46:29.789Z,23.20
2022-08-16T01:49:11.827Z,23.10
2022-08-16T01:51:43.739Z,23.20
2022-08-16T01:54:16.039Z,23.20
2022-08-16T01:56:46.260Z,23.30
2022-08-16T01:59:17.958Z,23.30
2022-08-16T02:01:49.559Z,23.20
2022-08-16T02:04:48.636Z,23.10
2022-08-16T02:07:11.416Z,23.10
2022-08-16T02:09:41.009Z,23.00
2022-08-16T02:12:50.274Z,23.00
2022-08-16T02:15:01.679Z,23.00
2022-08-16T02:17:30.578Z,22.90
2022-08-16T02:20:01.000Z,22.70
2022-08-16T02:22:34.687Z,22.70
2022-08-16T02:25:10.305Z,22.70
2022-08-16T02:27:43.892Z,22.70
2022-08-16T02:30:37.075Z,22.70
2022-08-16T02:33:06.470Z,22.60
2022-08-16T02:35:54.216Z,22.50
2022-08-16T02:38:26.318Z,22.50
2022-08-16T02:40:56.493Z,22.50
2022-08-16T02:43:27.765Z,22.50
2022-08-16T02:45:57.328Z,22.50
2022-08-16T02:48:30.234Z,22.50
2022-08-16T02:51:06.587Z,22.50
2022-08-16T02:53:43.684Z,22.50
2022-08-16T02:56:15.168Z,22.50
2022-08-16T02:58:46.486Z,22.40
2022-08-16T03:01:24.701Z,22.40
2022-08-16T03:04:39.979Z,22.40
2022-08-16T03:06:43.780Z,22.10
2022-08-16T03:09:14.926Z,22.20
2022-08-16T03:11:45.078Z,22.20
2022-08-16T03:14:21.216Z,22.20
2022-08-16T03:16:59.270Z,22.20
2022-08-16T03:19:45.774Z,22.30
2022-08-16T03:22:28.231Z,22.30
2022-08-16T03:25:00.744Z,22.10
2022-08-16T03:27:32.514Z,22.10
2022-08-16T03:30:15.958Z,22.10
2022-08-16T03:32:47.399Z,22.00
2022-08-16T03:35:18.177Z,22.30
2022-08-16T03:38:01.397Z,21.90
2022-08-16T03:40:33.183Z,21.70
2022-08-16T03:43:20.412Z,21.90
2022-08-16T03:45:53.664Z,21.80
2022-08-16T03:48:36.230Z,21.80
2022-08-16T03:51:09.595Z,21.90
2022-08-16T03:53:38.583Z,21.80
2022-08-16T03:56:18.538Z,21.80
2022-08-16T03:58:51.040Z,21.90
2022-08-16T04:01:24.310Z,21.90
2022-08-16T04:03:58.338Z,22.30
2022-08-16T04:06:28.660Z,22.10
2022-08-16T04:08:57.513Z,22.30
2022-08-16T04:11:26.909Z,22.40
2022-08-16T04:14:08.307Z,22.30
2022-08-16T04:16:39.614Z,22.30
2022-08-16T04:19:08.625Z,22.20
2022-08-16T04:21:46.048Z,22.20
2022-08-16T04:24:16.703Z,22.30
2022-08-16T04:26:46.763Z,22.40
2022-08-16T04:29:24.372Z,22.40
2022-08-16T04:31:57.899Z,22.40
2022-08-16T04:34:33.531Z,22.30
2022-08-16T04:37:03.243Z,22.40
2022-08-16T04:39:46.260Z,22.40
2022-08-16T04:42:17.906Z,22.40
2022-08-16T04:44:53.547Z,22.30
2022-08-16T04:47:31.584Z,22.40
2022-08-16T04:50:03.262Z,22.50
2022-08-16T04:52:35.826Z,22.30
2022-08-16T04:55:12.041Z,22.50
2022-08-16T04:57:41.996Z,22.50
2022-08-16T05:00:32.914Z,22.60
2022-08-16T05:03:09.412Z,22.90
2022-08-16T05:05:45.364Z,22.50
2022-08-16T05:08:29.720Z,22.50
2022-08-16T05:11:03.460Z,22.40
2022-08-16T05:13:39.890Z,22.40
2022-08-16T05:16:20.344Z,22.40
2022-08-16T05:18:56.816Z,22.60
2022-08-16T05:21:36.009Z,23.10
2022-08-16T05:24:09.816Z,23.80
2022-08-16T05:26:51.694Z,24.30
2022-08-16T05:29:21.080Z,25.00
2022-08-16T05:31:58.851Z,25.30
2022-08-16T05:34:30.996Z,25.80
2022-08-16T05:37:00.012Z,26.30
2022-08-16T05:39:30.122Z,26.60
2022-08-16T05:42:03.040Z,26.80
2022-08-16T05:44:32.001Z,27.40
2022-08-16T05:47:04.058Z,27.70
2022-08-16T05:49:38.357Z,28.10
2022-08-16T05:52:11.486Z,28.10
2022-08-16T05:54:47.170Z,28.30
2022-08-16T05:57:17.965Z,29.00
2022-08-16T05:59:50.565Z,29.30
2022-08-16T06:02:33.414Z,29.60
2022-08-16T06:05:04.019Z,29.80
2022-08-16T06:07:33.447Z,30.20
2022-08-16T06:10:02.466Z,30.50
2022-08-16T06:12:32.124Z,31.00
2022-08-16T06:15:07.727Z,31.10
2022-08-16T06:17:43.375Z,31.40
2022-08-16T06:20:23.721Z,31.50
2022-08-16T06:22:57.412Z,32.00
2022-08-16T06:25:36.523Z,32.10
2022-08-16T06:28:16.833Z,32.10
2022-08-16T06:30:59.698Z,32.20
2022-08-16T06:33:41.262Z,32.30
2022-08-16T06:36:14.025Z,32.40
2022-08-16T06:38:56.054Z,32.70
2022-08-16T06:41:39.580Z,33.10
2022-08-16T06:44:20.897Z,33.60
2022-08-16T06:46:50.916Z,33.50
2022-08-16T06:49:20.320Z,33.20
2022-08-16T06:51:55.347Z,33.60
2022-08-16T06:54:36.743Z,33.90
2022-08-16T06:57:11.780Z,33.70
2022-08-16T06:59:52.790Z,33.80
2022-08-16T07:02:33.363Z,33.30
2022-08-16T07:05:02.841Z,33.40
2022-08-16T07:07:36.311Z,33.50
2022-08-16T07:10:08.853Z,33.30
2022-08-16T07:12:47.522Z,33.50
2022-08-16T07:15:28.645Z,33.80
2022-08-16T07:18:02.584Z,34.10
2022-08-16T07:20:36.127Z,34.50
2022-08-16T07:23:38.638Z,34.70
2022-08-16T07:26:24.380Z,35.30
2022-08-16T07:29:10.441Z,35.50
2022-08-16T07:31:39.349Z,35.60
2022-08-16T07:34:09.998Z,35.40
2022-08-16T07:36:39.574Z,35.60
2022-08-16T07:39:10.543Z,35.90
2022-08-16T07:41:39.690Z,35.60
2022-08-16T07:44:15.418Z,36.20
2022-08-16T07:46:46.023Z,36.40
2022-08-16T07:49:15.430Z,36.60
2022-08-16T07:51:47.490Z,36.90
2022-08-16T07:54:21.112Z,36.80
2022-08-16T07:57:02.129Z,37.00
2022-08-16T07:59:42.624Z,37.40
2022-08-16T08:02:19.727Z,37.70
2022-08-16T08:04:51.334Z,37.40
2022-08-16T08:07:20.761Z,37.90
2022-08-16T08:09:52.038Z,38.30
2022-08-16T08:12:32.494Z,38.50
2022-08-16T08:15:09.742Z,38.80
2022-08-16T08:17:42.623Z,38.70
2022-08-16T08:20:18.613Z,38.20
2022-08-16T08:23:01.121Z,38.10
2022-08-16T08:25:55.000Z,37.50
2022-08-16T08:28:23.403Z,37.00
2022-08-16T08:31:00.685Z,36.60
2022-08-16T08:33:34.811Z,36.90
2022-08-16T08:36:08.652Z,37.10
2022-08-16T08:38:45.960Z,37.50
2022-08-16T08:41:27.332Z,38.10
2022-08-16T08:43:58.440Z,38.40
2022-08-16T08:46:28.817Z,38.60
2022-08-16T08:49:08.955Z,38.60
2022-08-16T08:51:42.219Z,38.60
2022-08-16T08:54:20.756Z,38.20
2022-08-16T08:57:02.280Z,38.00
2022-08-16T08:59:34.465Z,38.20
2022-08-16T09:02:19.593Z,38.90
2022-08-16T09:08:01.658Z,38.00
2022-08-16T09:11:02.311Z,38.50
2022-08-16T09:14:23.661Z,38.80
2022-08-16T09:19:55.742Z,39.20
2022-08-16T09:22:29.402Z,39.40
2022-08-16T09:25:14.755Z,39.60
2022-08-16T09:27:58.056Z,39.70
2022-08-16T09:30:46.419Z,39.30
2022-08-16T09:33:26.431Z,39.40
2022-08-16T09:36:01.927Z,39.20
2022-08-16T09:38:32.922Z,39.10
2022-08-16T09:41:03.075Z,39.00
2022-08-16T09:43:58.122Z,38.80
2022-08-16T09:46:45.657Z,38.70
2022-08-16T09:49:14.970Z,38.30
2022-08-16T09:51:45.040Z,38.10
2022-08-16T09:54:16.938Z,38.20
2022-08-16T09:56:52.791Z,37.80
2022-08-16T10:06:35.900Z,37.40
2022-08-16T10:09:10.449Z,36.50
2022-08-16T10:12:11.529Z,36.20
2022-08-16T10:14:51.243Z,36.00
2022-08-16T10:17:24.923Z,35.20
2022-08-16T10:19:56.196Z,34.80
2022-08-16T10:22:30.975Z,35.00
2022-08-16T10:27:00.649Z,35.00
2022-08-16T10:28:29.169Z,34.60
2022-08-16T10:31:03.341Z,34.30
2022-08-16T10:33:40.354Z,34.30
2022-08-16T10:39:40.445Z,34.60
2022-08-16T10:42:06.922Z,34.30
2022-08-16T10:44:38.243Z,33.90
2022-08-16T10:47:08.373Z,34.50
2022-08-16T10:49:39.652Z,34.70
2022-08-16T10:52:18.009Z,34.10
2022-08-16T10:57:46.525Z,33.60
2022-08-16T11:00:24.936Z,33.60
2022-08-16T11:02:57.607Z,33.50
2022-08-16T11:05:59.195Z,33.50
2022-08-16T11:08:31.311Z,33.60
2022-08-16T11:11:18.600Z,33.80
2022-08-16T11:14:10.943Z,34.50
2022-08-16T11:19:33.935Z,35.10
2022-08-16T11:22:42.284Z,34.90
2022-08-16T11:31:13.513Z,35.70
2022-08-16T11:33:57.780Z,35.40
2022-08-16T11:36:30.231Z,35.10
2022-08-16T11:39:02.120Z,35.20
2022-08-16T11:41:33.862Z,35.20
2022-08-16T11:44:06.646Z,34.20
2022-08-16T11:46:45.031Z,34.60
2022-08-16T11:49:17.286Z,34.50
2022-08-16T11:51:53.195Z,33.90
2022-08-16T11:54:35.777Z,33.60
2022-08-16T11:57:08.972Z,33.40
2022-08-16T11:59:42.092Z,33.70
2022-08-16T12:02:32.631Z,34.30
2022-08-16T12:05:21.763Z,34.80
2022-08-16T12:08:02.026Z,35.20
2022-08-16T12:11:06.688Z,35.20
2022-08-16T12:13:47.883Z,35.10
2022-08-16T12:16:22.941Z,35.50
2022-08-16T12:19:39.047Z,35.60
2022-08-16T12:22:19.157Z,35.40
2022-08-16T12:24:52.025Z,35.00
2022-08-16T12:27:29.867Z,34.80
2022-08-16T12:30:05.002Z,35.20
2022-08-16T12:32:56.404Z,34.70
2022-08-16T12:35:30.096Z,34.40
2022-08-16T12:37:59.777Z,34.50
2022-08-16T12:40:36.538Z,35.00
2022-08-16T12:43:12.979Z,35.20
2022-08-16T12:45:49.038Z,34.90
2022-08-16T12:48:42.642Z,35.00
2022-08-16T12:51:20.080Z,34.80
2022-08-16T12:53:55.976Z,34.10
2022-08-16T12:56:35.537Z,33.60
2022-08-16T12:59:11.502Z,33.40
2022-08-16T13:01:42.359Z,33.30
2022-08-16T13:04:20.578Z,33.40
2022-08-16T13:06:52.378Z,33.40
2022-08-16T13:09:29.077Z,33.70
2022-08-16T13:12:04.623Z,33.80
2022-08-16T13:14:41.124Z,33.80
2022-08-16T13:17:18.557Z,34.00
2022-08-16T13:20:11.469Z,34.20
2022-08-16T13:22:46.492Z,34.30
2022-08-16T13:25:20.787Z,34.30
2022-08-16T13:28:01.924Z,34.10
2022-08-16T13:30:41.632Z,34.40
2022-08-16T13:33:15.751Z,34.00
2022-08-16T13:35:55.966Z,34.00
2022-08-16T13:38:30.208Z,34.00
2022-08-16T13:41:05.388Z,33.90
2022-08-16T13:43:42.276Z,33.40
2022-08-16T13:46:13.329Z,33.50
2022-08-16T13:48:45.457Z,33.70
2022-08-16T13:51:23.706Z,33.90
2022-08-16T13:53:59.302Z,34.00
2022-08-16T13:56:36.968Z,34.00
2022-08-16T13:59:20.878Z,33.90
2022-08-16T14:01:56.714Z,33.70
2022-08-16T14:05:01.879Z,33.60
2022-08-16T14:07:46.316Z,33.30
2022-08-16T14:10:22.616Z,32.70
2022-08-16T14:12:56.412Z,32.50
2022-08-16T14:15:26.275Z,32.50
2022-08-16T14:18:15.514Z,32.70
2022-08-16T14:20:48.586Z,32.90
2022-08-16T14:23:21.830Z,33.00
2022-08-16T14:25:54.696Z,33.10
2022-08-16T14:28:30.950Z,32.70
2022-08-16T14:31:05.316Z,32.40
2022-08-16T14:33:37.857Z,32.30
2022-08-16T14:36:10.134Z,32.40
2022-08-16T14:38:42.226Z,32.30
2022-08-16T14:41:14.882Z,32.20
2022-08-16T14:43:46.647Z,32.20
2022-08-16T14:46:19.150Z,32.40
2022-08-16T14:48:48.682Z,32.50
2022-08-16T14:51:27.448Z,32.70
2022-08-16T14:54:01.911Z,32.70
2022-08-16T14:56:42.504Z,32.50
2022-08-16T14:59:12.974Z,32.40
2022-08-16T15:01:57.935Z,32.30
2022-08-16T15:04:39.694Z,32.20
2022-08-16T15:07:12.656Z,31.90
2022-08-16T15:10:00.811Z,31.70
2022-08-16T15:12:34.102Z,31.80
2022-08-16T15:15:11.956Z,31.80
2022-08-16T15:17:55.988Z,31.80
2022-08-16T15:20:29.442Z,31.90
2022-08-16T15:23:02.668Z,31.90
2022-08-16T15:25:59.750Z,32.20
2022-08-16T15:28:53.099Z,32.30
2022-08-16T15:31:28.979Z,32.40
2022-08-16T15:34:00.881Z,32.40
2022-08-16T15:36:39.983Z,32.40
2022-08-16T15:39:29.792Z,32.30
2022-08-16T15:42:27.079Z,32.30
2022-08-16T15:45:02.315Z,32.30
2022-08-16T15:47:55.500Z,32.30
2022-08-16T15:50:30.444Z,32.20
2022-08-16T15:53:14.372Z,32.10
2022-08-16T15:55:53.079Z,32.00
2022-08-16T15:58:40.100Z,31.90
2022-08-16T16:01:12.002Z,31.80
2022-08-16T16:03:44.721Z,31.60
2022-08-16T16:06:21.229Z,31.70
2022-08-16T16:09:00.236Z,31.60
2022-08-16T16:11:39.878Z,31.60
2022-08-16T16:14:13.536Z,31.50
2022-08-16T16:16:47.930Z,31.50
2022-08-16T16:19:20.575Z,31.20
2022-08-16T16:21:56.020Z,31.40
2022-08-16T16:24:30.732Z,31.40
2022-08-16T16:27:04.977Z,31.40
2022-08-16T16:29:40.156Z,31.40
2022-08-16T16:32:15.579Z,31.30
2022-08-16T16:34:46.755Z,31.30
2022-08-16T16:37:17.116Z,31.40
2022-08-16T16:39:51.049Z,31.40
2022-08-16T16:42:29.726Z,31.40
2022-08-16T16:45:15.395Z,31.50
2022-08-16T16:47:47.252Z,31.40
2022-08-16T16:50:33.121Z,31.50
2022-08-16T16:53:17.242Z,31.50
2022-08-16T16:55:52.021Z,31.50
2022-08-16T16:58:40.466Z,31.50
2022-08-16T17:01:14.801Z,31.50
2022-08-16T17:03:44.961Z,31.50
2022-08-16T17:06:25.023Z,31.50
2022-08-16T17:08:56.225Z,31.50
2022-08-16T17:11:27.216Z,31.40
2022-08-16T17:13:59.603Z,31.50
2022-08-16T17:16:33.627Z,31.50
2022-08-16T17:19:16.877Z,31.50
2022-08-16T17:21:49.486Z,31.40
2022-08-16T17:24:21.313Z,31.40
2022-08-16T17:27:04.106Z,31.30
2022-08-16T17:29:34.189Z,31.20
2022-08-16T17:32:44.698Z,31.10
2022-08-16T17:35:10.809Z,31.00
2022-08-16T17:37:50.742Z,31.00
2022-08-16T17:40:47.143Z,30.70
2022-08-16T17:43:17.140Z,30.60
2022-08-16T17:45:48.288Z,30.30
2022-08-16T17:48:21.226Z,30.20
2022-08-16T17:50:54.789Z,30.40
2022-08-16T17:53:24.902Z,30.00
2022-08-16T17:55:55.581Z,29.90
2022-08-16T17:58:25.276Z,29.80
2022-08-16T18:00:56.374Z,29.80
2022-08-16T18:04:08.790Z,29.70
2022-08-16T18:06:25.743Z,29.70
2022-08-16T18:09:02.629Z,29.60
2022-08-16T18:11:35.991Z,29.60
2022-08-16T18:14:09.911Z,29.60
2022-08-16T18:16:41.164Z,29.60
2022-08-16T18:19:12.647Z,29.50
2022-08-16T18:22:01.663Z,29.50
2022-08-16T18:24:33.735Z,29.40
2022-08-16T18:29:52.232Z,29.30
2022-08-16T18:32:25.131Z,29.10
2022-08-16T18:34:57.034Z,29.10
2022-08-16T18:37:26.465Z,29.00
2022-08-16T18:39:56.695Z,29.00
2022-08-16T18:42:31.898Z,29.00
2022-08-16T18:45:01.425Z,28.90
2022-08-16T18:47:30.875Z,28.70
2022-08-16T18:50:03.043Z,28.80
2022-08-16T18:52:32.837Z,28.70
2022-08-16T18:55:13.936Z,28.50
2022-08-16T18:57:44.936Z,28.60
2022-08-16T19:00:16.283Z,28.60
2022-08-16T19:02:59.141Z,28.50
2022-08-16T19:05:44.789Z,28.50
2022-08-16T19:08:16.403Z,28.30
2022-08-16T19:10:48.707Z,28.30
2022-08-16T19:13:23.540Z,28.20
2022-08-16T19:15:55.890Z,28.30
2022-08-16T19:18:26.799Z,28.00
2022-08-16T19:21:04.293Z,27.90
2022-08-16T19:23:39.508Z,27.90
2022-08-16T19:26:24.527Z,27.80
2022-08-16T19:29:00.032Z,27.70
2022-08-16T19:31:36.427Z,27.60
2022-08-16T19:34:06.555Z,27.60
2022-08-16T19:36:40.075Z,27.60
2022-08-16T19:39:18.966Z,27.60
2022-08-16T19:41:53.694Z,27.50
2022-08-16T19:44:24.309Z,27.40
2022-08-16T19:46:53.882Z,27.40
2022-08-16T19:49:23.325Z,27.30
2022-08-16T19:51:55.365Z,27.20
2022-08-16T19:54:25.025Z,27.10
2022-08-16T19:56:54.470Z,27.10
2022-08-16T19:59:40.236Z,27.10
2022-08-16T20:02:32.587Z,26.80
2022-08-16T20:05:19.815Z,27.00
2022-08-16T20:07:54.376Z,26.90
2022-08-16T20:10:40.544Z,26.80
2022-08-16T20:13:17.592Z,26.80
2022-08-16T20:15:51.288Z,26.80
2022-08-16T20:18:24.752Z,26.70
2022-08-16T20:20:56.826Z,26.70
2022-08-16T20:23:30.162Z,26.90
2022-08-16T20:25:59.483Z,26.60
2022-08-16T20:28:52.323Z,26.60
2022-08-16T20:31:18.158Z,26.60
2022-08-16T20:33:49.962Z,26.50
2022-08-16T20:36:19.984Z,26.50
2022-08-16T20:38:51.985Z,26.50
2022-08-16T20:41:23.899Z,26.40
2022-08-16T20:43:54.946Z,26.40
2022-08-16T20:46:24.965Z,26.40
2022-08-16T20:48:57.058Z,26.40
2022-08-16T20:51:26.716Z,26.40
2022-08-16T20:53:57.929Z,26.50
2022-08-16T20:56:26.940Z,26.40
2022-08-16T20:58:57.073Z,26.40
2022-08-16T21:01:26.513Z,26.40
2022-08-16T21:04:16.721Z,26.40
2022-08-16T21:06:49.162Z,26.40
2022-08-16T21:09:26.428Z,26.40
2022-08-16T21:12:02.891Z,26.50
2022-08-16T21:14:34.336Z,26.40
2022-08-16T21:17:03.726Z,26.40
2022-08-16T21:19:33.913Z,26.40
2022-08-16T21:22:13.458Z,26.40
2022-08-16T21:24:46.455Z,26.30
2022-08-16T21:27:17.458Z,26.30
2022-08-16T21:29:52.149Z,26.30
2022-08-16T21:32:35.302Z,26.30
2022-08-16T21:35:10.869Z,26.70
2022-08-16T21:37:40.796Z,26.30
2022-08-16T21:40:34.105Z,26.40
2022-08-16T21:43:08.292Z,26.30
2022-08-16T21:45:38.116Z,26.30
2022-08-16T21:48:07.921Z,26.40
2022-08-16T21:50:40.544Z,26.30
2022-08-16T21:53:11.625Z,26.20
2022-08-16T21:58:57.378Z,26.30
2022-08-16T22:01:27.716Z,26.20
2022-08-16T22:04:35.613Z,26.20
2022-08-16T22:06:46.666Z,26.20
2022-08-16T22:09:25.277Z,26.10
2022-08-16T22:11:56.472Z,26.10
2022-08-16T22:14:25.561Z,26.10
2022-08-16T22:20:00.347Z,26.00
2022-08-16T22:22:35.378Z,26.10
2022-08-16T22:25:09.802Z,26.10
2022-08-16T22:27:43.722Z,26.10
2022-08-16T22:30:14.159Z,26.20
2022-08-16T22:32:46.319Z,26.10
2022-08-16T22:35:16.438Z,26.10
2022-08-16T22:38:50.202Z,26.10
2022-08-16T22:40:34.582Z,26.10
2022-08-16T22:43:05.401Z,26.10
2022-08-16T22:45:37.566Z,26.10
2022-08-16T22:48:09.492Z,26.00
2022-08-16T22:50:39.482Z,25.90
2022-08-16T22:53:09.345Z,25.90
2022-08-16T22:55:40.952Z,25.80
2022-08-16T22:58:11.668Z,25.80
2022-08-16T23:00:42.055Z,25.80
2022-08-16T23:03:13.734Z,25.70
2022-08-16T23:05:45.482Z,25.70
2022-08-16T23:08:32.229Z,25.70
2022-08-16T23:11:09.311Z,25.60
2022-08-16T23:13:52.490Z,25.70
2022-08-16T23:16:32.516Z,25.60
2022-08-16T23:19:03.529Z,25.50
2022-08-16T23:21:33.346Z,25.50
2022-08-16T23:24:02.912Z,25.40
2022-08-16T23:26:44.065Z,25.30
2022-08-16T23:29:23.665Z,25.30
2022-08-16T23:31:55.989Z,25.30
2022-08-16T23:34:25.458Z,25.10
2022-08-16T23:36:54.366Z,25.10
2022-08-16T23:39:27.472Z,25.10
2022-08-16T23:41:56.959Z,25.10
2022-08-16T23:44:57.469Z,25.10
2022-08-16T23:47:15.845Z,25.10
2022-08-16T23:50:00.499Z,25.00
2022-08-16T23:52:40.576Z,25.00
2022-08-16T23:55:21.598Z,25.00
2022-08-16T23:57:51.008Z,25.00
